Hauptseite
METAR-TAF:

METAR-TAF

Flughäfen :

Metz-Nancy-Lorraine, Frankreich

Flughafen Metz-Nancy-Lothringen

Breite: 48-59N, Länge: 006-15E, Höhe: 264 m

Beobachtung

Neuester Wetterbericht von vor 28 Minuten, um 13:30 UTC
Wind 24 kt aus Ost/Nordost
Temperatur 5°C
Luftfeuchtigkeit 28%
Luftdruck 1015 hPa
Sichtweite: 9000 m

METAR: LFJL 241330Z AUTO 07024KT 9000 NSC 05/M12 Q1015 TEMPO 07021G32KT

Zeit: 14:58 (13:58 UTC)

Prognose

Neuester Wetterbericht von vor 3 Stunden und 2 Minuten, um 10:56 UTC
Gültige Prognose vom 24 um 12 UTC bis 25 um 12 UTC
Wind 18 kt aus Ost/Nordost
Sichtweite 10 km oder mehr
keine Wolken unter 1500 m und keine Kumulonimbus oder Gewitterwolken
Zeitweise
vom 24 um 12 UTC bis 25 um 12 UTC
Wind 21 kt aus Ost/Nordost, Böen bis zu 32 kt

TAF: LFJL 241056Z 2412/2512 06018KT CAVOK TEMPO 2412/2512 07021G32KT

Wetterbeobachtungen und Prognosen von mehr als 4000 Flughäfen (METAR und TAF Bericht).

Die verfügbaren Stationen werden durch gelbe und rote Markierungen auf der Karte dargestellt.

Führen Sie die Maus auf sie, um den Namen der Station zu sehen.

Darauf klicken, um die Beobachtung von Wetterbeobachtungen und Prognosen zu sehen.

Um die Karte zu ändern : klicken Sie auf den grünen Tasten mit einem schwarzen Kreuz Zum Vergrößern, auf den grünen Button mit einem Gedankenstrich zu verkleinern, oder auf die grünen Pfeile für benachbarte Karten.


METAR-TAF: